sensor_id;sensor_type;location;lat;lon;timestamp;pressure;altitude;pressure_sealevel;temperature;humidity
67842;BME280;54642;59.126;37.876;2022-08-19T00:01:50;100994.88;;;21.70;62.79
67842;BME280;54642;59.126;37.876;2022-08-19T00:04:18;101006.41;;;21.68;62.09
67842;BME280;54642;59.126;37.876;2022-08-19T00:06:46;101052.91;;;21.96;62.52
67842;BME280;54642;59.126;37.876;2022-08-19T00:09:14;100988.34;;;21.57;63.07
67842;BME280;54642;59.126;37.876;2022-08-19T00:11:41;101004.91;;;21.61;63.32
67842;BME280;54642;59.126;37.876;2022-08-19T00:14:08;101041.13;;;21.81;62.50
67842;BME280;54642;59.126;37.876;2022-08-19T00:16:36;101051.78;;;21.78;62.94
67842;BME280;54642;59.126;37.876;2022-08-19T00:19:03;101059.03;;;21.71;63.21
67842;BME280;54642;59.126;37.876;2022-08-19T00:21:28;101057.50;;;21.65;63.67
67842;BME280;54642;59.126;37.876;2022-08-19T00:23:55;101011.56;;;21.46;63.54
67842;BME280;54642;59.126;37.876;2022-08-19T00:26:26;101021.69;;;21.58;63.61
67842;BME280;54642;59.126;37.876;2022-08-19T00:28:53;101060.63;;;21.77;63.28
67842;BME280;54642;59.126;37.876;2022-08-19T00:31:19;101030.50;;;21.59;64.25
67842;BME280;54642;59.126;37.876;2022-08-19T00:33:46;100987.34;;;21.35;63.92
67842;BME280;54642;59.126;37.876;2022-08-19T00:36:13;101056.25;;;21.76;63.29
67842;BME280;54642;59.126;37.876;2022-08-19T00:38:39;101033.97;;;21.59;63.35
67842;BME280;54642;59.126;37.876;2022-08-19T00:41:12;101022.88;;;21.49;63.44
67842;BME280;54642;59.126;37.876;2022-08-19T00:43:40;100995.66;;;21.22;63.16
67842;BME280;54642;59.126;37.876;2022-08-19T00:46:06;101067.56;;;21.54;63.35
67842;BME280;54642;59.126;37.876;2022-08-19T00:48:33;101059.00;;;21.47;63.92
67842;BME280;54642;59.126;37.876;2022-08-19T00:51:00;101068.03;;;21.39;63.77
67842;BME280;54642;59.126;37.876;2022-08-19T00:53:28;101069.13;;;21.33;63.42
67842;BME280;54642;59.126;37.876;2022-08-19T00:55:58;101071.63;;;21.38;64.00
67842;BME280;54642;59.126;37.876;2022-08-19T00:58:29;101043.13;;;21.22;63.24
67842;BME280;54642;59.126;37.876;2022-08-19T01:00:55;101046.72;;;21.20;63.70
67842;BME280;54642;59.126;37.876;2022-08-19T01:03:22;101072.72;;;21.30;63.86
67842;BME280;54642;59.126;37.876;2022-08-19T01:05:49;101034.00;;;21.06;63.87
67842;BME280;54642;59.126;37.876;2022-08-19T01:08:17;101090.38;;;21.28;63.63
67842;BME280;54642;59.126;37.876;2022-08-19T01:10:52;101068.75;;;21.17;64.02
67842;BME280;54642;59.126;37.876;2022-08-19T01:13:23;100999.78;;;20.78;63.87
67842;BME280;54642;59.126;37.876;2022-08-19T01:15:53;101039.41;;;21.01;63.83
67842;BME280;54642;59.126;37.876;2022-08-19T01:18:20;101077.56;;;21.18;64.20
67842;BME280;54642;59.126;37.876;2022-08-19T01:20:47;101075.97;;;21.12;64.31
67842;BME280;54642;59.126;37.876;2022-08-19T01:23:13;101048.91;;;21.07;64.22
67842;BME280;54642;59.126;37.876;2022-08-19T01:25:49;101082.56;;;21.25;64.03
67842;BME280;54642;59.126;37.876;2022-08-19T01:28:22;101085.97;;;21.29;64.33
67842;BME280;54642;59.126;37.876;2022-08-19T01:30:48;101077.44;;;21.21;63.37
67842;BME280;54642;59.126;37.876;2022-08-19T01:33:14;101096.47;;;21.30;63.94
67842;BME280;54642;59.126;37.876;2022-08-19T01:35:41;101094.72;;;21.29;63.58
67842;BME280;54642;59.126;37.876;2022-08-19T01:38:10;101088.78;;;21.23;64.11
67842;BME280;54642;59.126;37.876;2022-08-19T01:40:44;101055.25;;;21.00;63.80
67842;BME280;54642;59.126;37.876;2022-08-19T01:43:10;101103.66;;;21.25;64.43
67842;BME280;54642;59.126;37.876;2022-08-19T01:45:36;101100.31;;;21.20;64.07
67842;BME280;54642;59.126;37.876;2022-08-19T01:48:08;101083.06;;;21.10;63.40
67842;BME280;54642;59.126;37.876;2022-08-19T01:50:35;101114.59;;;21.13;63.76
67842;BME280;54642;59.126;37.876;2022-08-19T01:53:05;101088.00;;;20.92;63.86
67842;BME280;54642;59.126;37.876;2022-08-19T01:55:31;101078.56;;;20.85;63.77
67842;BME280;54642;59.126;37.876;2022-08-19T01:58:00;101127.09;;;21.06;64.60
67842;BME280;54642;59.126;37.876;2022-08-19T02:00:30;101086.34;;;20.90;64.11
67842;BME280;54642;59.126;37.876;2022-08-19T02:02:56;101113.25;;;21.00;63.85
67842;BME280;54642;59.126;37.876;2022-08-19T02:05:23;101120.97;;;21.06;64.12
67842;BME280;54642;59.126;37.876;2022-08-19T02:07:49;101115.84;;;21.01;64.84
67842;BME280;54642;59.126;37.876;2022-08-19T02:10:18;101065.50;;;20.82;64.28
67842;BME280;54642;59.126;37.876;2022-08-19T02:12:45;101082.03;;;20.87;64.31
67842;BME280;54642;59.126;37.876;2022-08-19T02:15:11;101112.03;;;21.10;63.87
67842;BME280;54642;59.126;37.876;2022-08-19T02:17:38;101086.41;;;20.87;63.75
67842;BME280;54642;59.126;37.876;2022-08-19T02:20:06;101083.03;;;20.83;63.61
67842;BME280;54642;59.126;37.876;2022-08-19T02:22:32;101126.16;;;21.09;63.96
67842;BME280;54642;59.126;37.876;2022-08-19T02:24:58;101097.72;;;20.90;63.49
67842;BME280;54642;59.126;37.876;2022-08-19T02:27:24;101137.75;;;21.03;63.67
67842;BME280;54642;59.126;37.876;2022-08-19T02:29:51;101125.38;;;21.05;63.61
67842;BME280;54642;59.126;37.876;2022-08-19T02:32:18;101073.97;;;20.64;63.88
67842;BME280;54642;59.126;37.876;2022-08-19T02:34:46;101143.97;;;21.01;63.76
67842;BME280;54642;59.126;37.876;2022-08-19T02:37:13;101157.88;;;21.06;63.95
67842;BME280;54642;59.126;37.876;2022-08-19T02:39:58;101139.72;;;20.97;63.43
67842;BME280;54642;59.126;37.876;2022-08-19T02:42:24;101109.81;;;20.69;63.56
67842;BME280;54642;59.126;37.876;2022-08-19T02:44:50;101150.97;;;21.02;63.43
67842;BME280;54642;59.126;37.876;2022-08-19T02:47:17;101113.88;;;20.80;63.22
67842;BME280;54642;59.126;37.876;2022-08-19T02:49:45;101129.47;;;20.87;62.78
67842;BME280;54642;59.126;37.876;2022-08-19T02:52:11;101136.34;;;20.91;63.26
67842;BME280;54642;59.126;37.876;2022-08-19T02:54:37;101153.69;;;20.99;63.24
67842;BME280;54642;59.126;37.876;2022-08-19T02:57:04;101159.84;;;20.98;63.15
67842;BME280;54642;59.126;37.876;2022-08-19T02:59:31;101136.53;;;20.85;63.25
67842;BME280;54642;59.126;37.876;2022-08-19T03:01:57;101168.31;;;21.09;63.05
67842;BME280;54642;59.126;37.876;2022-08-19T03:04:24;101157.78;;;21.09;62.82
67842;BME280;54642;59.126;37.876;2022-08-19T03:06:50;101142.88;;;21.08;62.30
67842;BME280;54642;59.126;37.876;2022-08-19T03:09:18;101152.22;;;21.18;62.74
67842;BME280;54642;59.126;37.876;2022-08-19T03:11:45;101125.53;;;21.01;62.77
67842;BME280;54642;59.126;37.876;2022-08-19T03:14:12;101151.56;;;21.10;61.87
67842;BME280;54642;59.126;37.876;2022-08-19T03:16:47;101127.63;;;20.89;62.04
67842;BME280;54642;59.126;37.876;2022-08-19T03:19:16;101167.31;;;21.13;62.37
67842;BME280;54642;59.126;37.876;2022-08-19T03:21:44;101176.06;;;21.13;62.12
67842;BME280;54642;59.126;37.876;2022-08-19T03:24:11;101157.91;;;21.04;61.75
67842;BME280;54642;59.126;37.876;2022-08-19T03:26:42;101172.50;;;21.16;62.00
67842;BME280;54642;59.126;37.876;2022-08-19T03:29:08;101141.53;;;20.94;62.11
67842;BME280;54642;59.126;37.876;2022-08-19T03:31:37;101139.59;;;21.00;61.71
67842;BME280;54642;59.126;37.876;2022-08-19T03:34:04;101163.78;;;21.14;61.69
67842;BME280;54642;59.126;37.876;2022-08-19T03:36:30;101139.41;;;21.06;61.67
67842;BME280;54642;59.126;37.876;2022-08-19T03:38:59;101171.38;;;21.23;61.30
67842;BME280;54642;59.126;37.876;2022-08-19T03:41:30;101174.03;;;21.23;61.51
67842;BME280;54642;59.126;37.876;2022-08-19T03:43:57;101183.63;;;21.24;62.08
67842;BME280;54642;59.126;37.876;2022-08-19T03:46:26;101173.81;;;21.29;61.56
67842;BME280;54642;59.126;37.876;2022-08-19T03:48:57;101159.16;;;21.21;61.36
67842;BME280;54642;59.126;37.876;2022-08-19T03:51:28;101138.53;;;21.07;61.23
67842;BME280;54642;59.126;37.876;2022-08-19T03:53:57;101172.97;;;21.29;61.38
67842;BME280;54642;59.126;37.876;2022-08-19T03:56:24;101173.25;;;21.20;61.27
67842;BME280;54642;59.126;37.876;2022-08-19T03:58:54;101148.34;;;21.02;61.49
67842;BME280;54642;59.126;37.876;2022-08-19T04:01:22;101198.72;;;21.19;61.70
67842;BME280;54642;59.126;37.876;2022-08-19T04:03:49;101146.72;;;20.96;61.99
67842;BME280;54642;59.126;37.876;2022-08-19T04:06:25;101194.31;;;21.21;61.81
67842;BME280;54642;59.126;37.876;2022-08-19T04:08:53;101185.56;;;21.19;61.90
67842;BME280;54642;59.126;37.876;2022-08-19T04:11:23;101192.34;;;21.26;61.66
67842;BME280;54642;59.126;37.876;2022-08-19T04:13:52;101163.06;;;21.09;61.70
67842;BME280;54642;59.126;37.876;2022-08-19T04:16:19;101158.59;;;21.11;61.52
67842;BME280;54642;59.126;37.876;2022-08-19T04:18:47;101192.09;;;21.36;61.03
67842;BME280;54642;59.126;37.876;2022-08-19T04:21:19;101185.72;;;21.43;61.51
67842;BME280;54642;59.126;37.876;2022-08-19T04:23:45;101193.50;;;21.47;60.90
67842;BME280;54642;59.126;37.876;2022-08-19T04:26:16;101189.25;;;21.42;61.41
67842;BME280;54642;59.126;37.876;2022-08-19T04:28:45;101176.88;;;21.44;61.23
67842;BME280;54642;59.126;37.876;2022-08-19T04:31:37;101192.34;;;21.56;61.50
67842;BME280;54642;59.126;37.876;2022-08-19T04:34:08;101146.34;;;21.37;60.92
67842;BME280;54642;59.126;37.876;2022-08-19T04:36:37;101197.25;;;21.67;60.67
67842;BME280;54642;59.126;37.876;2022-08-19T04:39:08;101163.31;;;21.56;60.86
67842;BME280;54642;59.126;37.876;2022-08-19T04:41:34;101203.91;;;21.79;60.79
67842;BME280;54642;59.126;37.876;2022-08-19T04:44:19;101198.50;;;21.82;60.91
67842;BME280;54642;59.126;37.876;2022-08-19T04:46:46;101219.22;;;21.94;60.59
67842;BME280;54642;59.126;37.876;2022-08-19T04:49:14;101186.25;;;21.81;60.52
67842;BME280;54642;59.126;37.876;2022-08-19T04:51:42;101172.13;;;21.82;60.76
67842;BME280;54642;59.126;37.876;2022-08-19T04:54:08;101220.22;;;22.17;60.98
67842;BME280;54642;59.126;37.876;2022-08-19T04:56:34;101220.66;;;22.30;60.09
67842;BME280;54642;59.126;37.876;2022-08-19T04:59:00;101216.78;;;22.40;60.26
67842;BME280;54642;59.126;37.876;2022-08-19T05:01:30;101211.47;;;22.41;59.95
67842;BME280;54642;59.126;37.876;2022-08-19T05:03:58;101203.75;;;22.35;59.57
67842;BME280;54642;59.126;37.876;2022-08-19T05:06:25;101224.44;;;22.48;59.35
67842;BME280;54642;59.126;37.876;2022-08-19T05:08:52;101231.31;;;22.52;59.82
67842;BME280;54642;59.126;37.876;2022-08-19T05:11:31;101206.94;;;22.45;59.48
67842;BME280;54642;59.126;37.876;2022-08-19T05:13:57;101154.81;;;22.25;59.32
67842;BME280;54642;59.126;37.876;2022-08-19T05:16:24;101235.44;;;22.84;58.95
67842;BME280;54642;59.126;37.876;2022-08-19T05:18:51;101197.16;;;22.71;58.54
67842;BME280;54642;59.126;37.876;2022-08-19T05:21:36;101231.56;;;22.93;58.03
67842;BME280;54642;59.126;37.876;2022-08-19T05:24:22;101228.94;;;22.93;58.17
67842;BME280;54642;59.126;37.876;2022-08-19T05:26:51;101218.94;;;23.01;58.48
67842;BME280;54642;59.126;37.876;2022-08-19T05:29:20;101189.22;;;22.94;58.51
67842;BME280;54642;59.126;37.876;2022-08-19T05:31:47;101239.97;;;23.28;58.30
67842;BME280;54642;59.126;37.876;2022-08-19T05:34:16;101225.91;;;23.27;57.88
67842;BME280;54642;59.126;37.876;2022-08-19T05:36:44;101197.81;;;23.23;57.42
67842;BME280;54642;59.126;37.876;2022-08-19T05:39:14;101234.75;;;23.48;56.89
67842;BME280;54642;59.126;37.876;2022-08-19T05:41:45;101206.06;;;23.37;57.20
67842;BME280;54642;59.126;37.876;2022-08-19T05:44:12;101225.50;;;23.58;56.32
67842;BME280;54642;59.126;37.876;2022-08-19T05:46:39;101211.19;;;23.42;56.37
67842;BME280;54642;59.126;37.876;2022-08-19T05:49:05;101244.47;;;23.70;56.10
67842;BME280;54642;59.126;37.876;2022-08-19T05:51:33;101208.84;;;23.56;55.77
67842;BME280;54642;59.126;37.876;2022-08-19T05:54:01;101250.16;;;23.83;56.05
67842;BME280;54642;59.126;37.876;2022-08-19T05:56:28;101238.50;;;23.87;56.12
67842;BME280;54642;59.126;37.876;2022-08-19T05:58:57;101247.81;;;23.97;55.59
67842;BME280;54642;59.126;37.876;2022-08-19T06:01:25;101212.88;;;23.87;56.01
67842;BME280;54642;59.126;37.876;2022-08-19T06:03:51;101228.03;;;24.06;55.58
67842;BME280;54642;59.126;37.876;2022-08-19T06:06:18;101249.06;;;24.29;55.40
67842;BME280;54642;59.126;37.876;2022-08-19T06:08:44;101196.25;;;24.06;55.72
67842;BME280;54642;59.126;37.876;2022-08-19T06:14:03;101249.91;;;24.71;54.94
67842;BME280;54642;59.126;37.876;2022-08-19T06:16:30;101249.50;;;24.80;54.91
67842;BME280;54642;59.126;37.876;2022-08-19T06:19:06;101242.00;;;24.90;54.08
67842;BME280;54642;59.126;37.876;2022-08-19T06:21:33;101239.63;;;25.03;53.68
67842;BME280;54642;59.126;37.876;2022-08-19T06:24:00;101254.00;;;25.16;53.52
67842;BME280;54642;59.126;37.876;2022-08-19T06:26:26;101264.16;;;25.27;53.08
67842;BME280;54642;59.126;37.876;2022-08-19T06:28:53;101220.25;;;25.20;52.72
67842;BME280;54642;59.126;37.876;2022-08-19T06:31:22;101223.56;;;25.25;52.94
67842;BME280;54642;59.126;37.876;2022-08-19T06:33:48;101257.69;;;25.52;53.15
67842;BME280;54642;59.126;37.876;2022-08-19T06:36:24;101263.84;;;25.52;52.94
67842;BME280;54642;59.126;37.876;2022-08-19T06:38:55;101270.81;;;25.55;52.98
67842;BME280;54642;59.126;37.876;2022-08-19T06:41:22;101257.47;;;25.56;52.36
67842;BME280;54642;59.126;37.876;2022-08-19T06:43:48;101273.41;;;25.74;52.64
67842;BME280;54642;59.126;37.876;2022-08-19T06:46:16;101261.66;;;25.79;52.38
67842;BME280;54642;59.126;37.876;2022-08-19T06:48:43;101272.66;;;25.89;52.07
67842;BME280;54642;59.126;37.876;2022-08-19T06:51:08;101266.34;;;25.92;51.74
67842;BME280;54642;59.126;37.876;2022-08-19T06:53:34;101274.50;;;26.06;51.60
67842;BME280;54642;59.126;37.876;2022-08-19T06:56:00;101267.97;;;26.13;51.23
67842;BME280;54642;59.126;37.876;2022-08-19T06:58:31;101276.28;;;26.23;51.41
67842;BME280;54642;59.126;37.876;2022-08-19T07:01:02;101235.34;;;25.92;51.55
67842;BME280;54642;59.126;37.876;2022-08-19T07:03:31;101243.84;;;25.81;51.62
67842;BME280;54642;59.126;37.876;2022-08-19T07:06:02;101267.19;;;25.92;51.73
67842;BME280;54642;59.126;37.876;2022-08-19T07:08:28;101276.22;;;26.07;51.80
67842;BME280;54642;59.126;37.876;2022-08-19T07:10:54;101282.09;;;26.14;51.00
67842;BME280;54642;59.126;37.876;2022-08-19T07:13:22;101281.38;;;26.10;51.60
67842;BME280;54642;59.126;37.876;2022-08-19T07:15:49;101283.41;;;26.40;50.70
67842;BME280;54642;59.126;37.876;2022-08-19T07:18:19;101277.28;;;26.55;50.87
67842;BME280;54642;59.126;37.876;2022-08-19T07:20:47;101278.41;;;26.69;51.00
67842;BME280;54642;59.126;37.876;2022-08-19T07:23:13;101265.59;;;26.75;50.39
67842;BME280;54642;59.126;37.876;2022-08-19T07:25:39;101267.53;;;26.89;50.19
67842;BME280;54642;59.126;37.876;2022-08-19T07:28:05;101238.78;;;26.80;51.12
67842;BME280;54642;59.126;37.876;2022-08-19T07:30:33;101279.94;;;27.06;49.94
67842;BME280;54642;59.126;37.876;2022-08-19T07:33:01;101271.16;;;27.04;48.93
67842;BME280;54642;59.126;37.876;2022-08-19T07:35:27;101276.06;;;27.12;48.81
67842;BME280;54642;59.126;37.876;2022-08-19T07:37:54;101284.56;;;27.03;48.81
67842;BME280;54642;59.126;37.876;2022-08-19T07:40:20;101277.84;;;26.95;48.56
67842;BME280;54642;59.126;37.876;2022-08-19T07:42:46;101274.81;;;26.86;48.73
67842;BME280;54642;59.126;37.876;2022-08-19T07:45:12;101278.06;;;26.75;47.99
67842;BME280;54642;59.126;37.876;2022-08-19T07:47:41;101282.69;;;26.71;47.50
67842;BME280;54642;59.126;37.876;2022-08-19T07:50:12;101276.16;;;26.77;47.29
67842;BME280;54642;59.126;37.876;2022-08-19T07:52:39;101225.53;;;26.62;47.46
67842;BME280;54642;59.126;37.876;2022-08-19T07:55:08;101284.88;;;26.96;47.59
67842;BME280;54642;59.126;37.876;2022-08-19T07:57:35;101283.00;;;27.14;47.69
67842;BME280;54642;59.126;37.876;2022-08-19T08:00:05;101279.91;;;27.22;47.74
67842;BME280;54642;59.126;37.876;2022-08-19T08:02:37;101282.09;;;27.15;47.50
67842;BME280;54642;59.126;37.876;2022-08-19T08:05:04;101249.25;;;26.83;47.55
67842;BME280;54642;59.126;37.876;2022-08-19T08:07:49;101284.59;;;26.85;47.58
67842;BME280;54642;59.126;37.876;2022-08-19T08:10:33;101295.19;;;26.69;47.75
67842;BME280;54642;59.126;37.876;2022-08-19T08:12:59;101284.41;;;26.72;47.64
67842;BME280;54642;59.126;37.876;2022-08-19T08:15:25;101265.22;;;26.83;47.63
67842;BME280;54642;59.126;37.876;2022-08-19T08:17:51;101288.28;;;27.32;46.79
67842;BME280;54642;59.126;37.876;2022-08-19T08:20:18;101277.28;;;27.54;46.26
67842;BME280;54642;59.126;37.876;2022-08-19T08:22:45;101275.97;;;27.77;46.23
67842;BME280;54642;59.126;37.876;2022-08-19T08:25:30;101276.66;;;27.81;46.63
67842;BME280;54642;59.126;37.876;2022-08-19T08:27:57;101281.28;;;27.93;45.90
67842;BME280;54642;59.126;37.876;2022-08-19T08:30:28;101287.91;;;28.02;46.34
67842;BME280;54642;59.126;37.876;2022-08-19T08:32:55;101278.50;;;28.10;46.10
67842;BME280;54642;59.126;37.876;2022-08-19T08:35:23;101265.72;;;28.01;45.90
67842;BME280;54642;59.126;37.876;2022-08-19T08:37:52;101269.34;;;28.00;46.04
67842;BME280;54642;59.126;37.876;2022-08-19T08:40:48;101288.56;;;28.05;46.28
67842;BME280;54642;59.126;37.876;2022-08-19T08:43:26;101282.53;;;28.18;45.77
67842;BME280;54642;59.126;37.876;2022-08-19T08:46:01;101259.75;;;28.12;45.64
67842;BME280;54642;59.126;37.876;2022-08-19T08:48:58;101280.63;;;28.20;45.56
67842;BME280;54642;59.126;37.876;2022-08-19T08:54:05;101275.69;;;28.28;45.22
67842;BME280;54642;59.126;37.876;2022-08-19T08:56:32;101275.25;;;28.05;45.28
67842;BME280;54642;59.126;37.876;2022-08-19T08:59:07;101282.94;;;27.95;45.14
67842;BME280;54642;59.126;37.876;2022-08-19T09:01:36;101287.22;;;27.98;45.03
67842;BME280;54642;59.126;37.876;2022-08-19T09:04:12;101282.25;;;27.92;45.05
67842;BME280;54642;59.126;37.876;2022-08-19T09:09:28;101292.28;;;27.87;44.82
67842;BME280;54642;59.126;37.876;2022-08-19T09:15:05;101281.75;;;27.69;44.37
67842;BME280;54642;59.126;37.876;2022-08-19T09:17:33;101244.88;;;27.31;44.30
67842;BME280;54642;59.126;37.876;2022-08-19T09:20:08;101288.63;;;27.57;45.36
67842;BME280;54642;59.126;37.876;2022-08-19T09:22:41;101277.47;;;27.51;44.66
67842;BME280;54642;59.126;37.876;2022-08-19T09:25:13;101283.13;;;27.61;43.97
67842;BME280;54642;59.126;37.876;2022-08-19T09:27:41;101273.59;;;27.56;43.64
67842;BME280;54642;59.126;37.876;2022-08-19T09:30:13;101280.91;;;27.69;43.52
67842;BME280;54642;59.126;37.876;2022-08-19T09:32:41;101279.47;;;27.77;43.02
67842;BME280;54642;59.126;37.876;2022-08-19T09:35:12;101282.25;;;27.76;42.70
67842;BME280;54642;59.126;37.876;2022-08-19T09:37:41;101275.88;;;27.79;42.76
67842;BME280;54642;59.126;37.876;2022-08-19T09:40:12;101289.13;;;27.80;42.67
67842;BME280;54642;59.126;37.876;2022-08-19T09:42:41;101280.97;;;27.67;42.11
67842;BME280;54642;59.126;37.876;2022-08-19T09:45:12;101279.88;;;27.39;42.56
67842;BME280;54642;59.126;37.876;2022-08-19T09:47:39;101276.81;;;27.31;42.74
67842;BME280;54642;59.126;37.876;2022-08-19T09:50:07;101280.84;;;27.38;42.37
67842;BME280;54642;59.126;37.876;2022-08-19T09:52:37;101242.56;;;27.24;43.14
67842;BME280;54642;59.126;37.876;2022-08-19T09:55:08;101272.56;;;27.59;42.47
67842;BME280;54642;59.126;37.876;2022-08-19T09:57:34;101283.34;;;27.72;42.86
67842;BME280;54642;59.126;37.876;2022-08-19T10:00:03;101274.59;;;27.86;43.41
67842;BME280;54642;59.126;37.876;2022-08-19T10:02:34;101275.34;;;27.88;42.77
67842;BME280;54642;59.126;37.876;2022-08-19T10:05:00;101271.59;;;27.92;42.96
67842;BME280;54642;59.126;37.876;2022-08-19T10:07:45;101277.06;;;27.89;42.42
67842;BME280;54642;59.126;37.876;2022-08-19T10:10:11;101238.75;;;27.75;42.66
67842;BME280;54642;59.126;37.876;2022-08-19T10:12:37;101258.66;;;28.00;42.23
67842;BME280;54642;59.126;37.876;2022-08-19T10:15:05;101209.34;;;27.63;41.08
67842;BME280;54642;59.126;37.876;2022-08-19T10:17:31;101272.00;;;28.00;40.68
67842;BME280;54642;59.126;37.876;2022-08-19T10:19:59;101271.75;;;27.89;41.56
67842;BME280;54642;59.126;37.876;2022-08-19T10:22:25;101275.50;;;27.85;40.86
67842;BME280;54642;59.126;37.876;2022-08-19T10:24:51;101272.28;;;27.80;40.31
67842;BME280;54642;59.126;37.876;2022-08-19T10:27:17;101279.69;;;27.74;40.36
67842;BME280;54642;59.126;37.876;2022-08-19T10:29:43;101266.03;;;27.65;40.76
67842;BME280;54642;59.126;37.876;2022-08-19T10:32:09;101270.94;;;27.72;40.72
67842;BME280;54642;59.126;37.876;2022-08-19T10:34:37;101274.16;;;27.77;40.54
67842;BME280;54642;59.126;37.876;2022-08-19T10:37:04;101270.19;;;27.85;40.43
67842;BME280;54642;59.126;37.876;2022-08-19T10:39:32;101287.72;;;27.89;40.66
67842;BME280;54642;59.126;37.876;2022-08-19T10:41:59;101281.13;;;27.96;40.65
67842;BME280;54642;59.126;37.876;2022-08-19T10:44:25;101280.84;;;28.01;40.68
67842;BME280;54642;59.126;37.876;2022-08-19T10:46:54;101282.06;;;27.95;40.92
67842;BME280;54642;59.126;37.876;2022-08-19T10:49:20;101261.44;;;27.83;40.71
67842;BME280;54642;59.126;37.876;2022-08-19T10:51:46;101265.22;;;27.79;41.06
67842;BME280;54642;59.126;37.876;2022-08-19T10:54:32;101267.31;;;27.73;41.33
67842;BME280;54642;59.126;37.876;2022-08-19T10:57:16;101276.94;;;27.76;41.73
67842;BME280;54642;59.126;37.876;2022-08-19T10:59:42;101277.78;;;27.76;42.07
67842;BME280;54642;59.126;37.876;2022-08-19T11:02:10;101233.31;;;27.63;42.25
67842;BME280;54642;59.126;37.876;2022-08-19T11:04:39;101243.41;;;27.72;41.75
67842;BME280;54642;59.126;37.876;2022-08-19T11:07:06;101235.72;;;27.67;41.79
67842;BME280;54642;59.126;37.876;2022-08-19T11:09:41;101263.69;;;27.90;42.00
67842;BME280;54642;59.126;37.876;2022-08-19T11:12:08;101261.19;;;27.87;41.85
67842;BME280;54642;59.126;37.876;2022-08-19T11:14:35;101268.13;;;27.90;41.95
67842;BME280;54642;59.126;37.876;2022-08-19T11:17:03;101270.00;;;27.88;42.23
67842;BME280;54642;59.126;37.876;2022-08-19T11:19:29;101263.75;;;27.89;42.34
67842;BME280;54642;59.126;37.876;2022-08-19T11:21:56;101238.09;;;27.72;41.52
67842;BME280;54642;59.126;37.876;2022-08-19T11:24:24;101262.66;;;27.77;41.33
67842;BME280;54642;59.126;37.876;2022-08-19T11:26:52;101235.75;;;27.51;41.86
67842;BME280;54642;59.126;37.876;2022-08-19T11:29:20;101255.81;;;27.57;41.53
67842;BME280;54642;59.126;37.876;2022-08-19T11:31:49;101257.72;;;27.55;41.55
67842;BME280;54642;59.126;37.876;2022-08-19T11:34:19;101256.94;;;27.53;40.88
67842;BME280;54642;59.126;37.876;2022-08-19T11:36:46;101255.66;;;27.44;40.20
67842;BME280;54642;59.126;37.876;2022-08-19T11:39:15;101222.94;;;27.26;40.38
67842;BME280;54642;59.126;37.876;2022-08-19T11:41:42;101242.53;;;27.41;40.86
67842;BME280;54642;59.126;37.876;2022-08-19T11:44:08;101244.16;;;27.44;40.25
67842;BME280;54642;59.126;37.876;2022-08-19T11:46:35;101244.84;;;27.47;40.90
67842;BME280;54642;59.126;37.876;2022-08-19T11:49:03;101243.81;;;27.50;41.37
67842;BME280;54642;59.126;37.876;2022-08-19T11:51:30;101234.69;;;27.54;41.22
67842;BME280;54642;59.126;37.876;2022-08-19T11:53:58;101242.06;;;27.65;41.36
67842;BME280;54642;59.126;37.876;2022-08-19T11:56:25;101237.16;;;27.73;41.11
67842;BME280;54642;59.126;37.876;2022-08-19T11:58:52;101233.28;;;27.79;41.07
67842;BME280;54642;59.126;37.876;2022-08-19T12:01:20;101213.53;;;27.67;40.80
67842;BME280;54642;59.126;37.876;2022-08-19T12:03:48;101247.44;;;27.79;40.99
67842;BME280;54642;59.126;37.876;2022-08-19T12:06:18;101233.44;;;27.75;41.11
67842;BME280;54642;59.126;37.876;2022-08-19T12:08:45;101236.88;;;27.77;40.79
67842;BME280;54642;59.126;37.876;2022-08-19T12:11:12;101228.72;;;27.81;40.22
67842;BME280;54642;59.126;37.876;2022-08-19T12:13:39;101229.47;;;27.83;40.07
67842;BME280;54642;59.126;37.876;2022-08-19T12:16:11;101206.63;;;27.79;40.31
67842;BME280;54642;59.126;37.876;2022-08-19T12:18:39;101228.44;;;27.85;39.75
67842;BME280;54642;59.126;37.876;2022-08-19T12:21:07;101216.69;;;27.73;39.50
67842;BME280;54642;59.126;37.876;2022-08-19T12:23:35;101225.75;;;27.71;39.75
67842;BME280;54642;59.126;37.876;2022-08-19T12:26:03;101221.88;;;27.61;39.53
67842;BME280;54642;59.126;37.876;2022-08-19T12:28:30;101219.22;;;27.61;39.07
67842;BME280;54642;59.126;37.876;2022-08-19T12:30:56;101214.84;;;27.60;39.80
67842;BME280;54642;59.126;37.876;2022-08-19T12:33:22;101221.22;;;27.57;39.43
67842;BME280;54642;59.126;37.876;2022-08-19T12:35:51;101208.25;;;27.51;38.71
67842;BME280;54642;59.126;37.876;2022-08-19T12:38:18;101217.88;;;27.53;38.49
67842;BME280;54642;59.126;37.876;2022-08-19T12:40:48;101217.28;;;27.48;38.33
67842;BME280;54642;59.126;37.876;2022-08-19T12:43:15;101199.09;;;27.41;38.62
67842;BME280;54642;59.126;37.876;2022-08-19T12:45:41;101200.03;;;27.39;39.27
67842;BME280;54642;59.126;37.876;2022-08-19T12:48:08;101213.00;;;27.46;39.14
67842;BME280;54642;59.126;37.876;2022-08-19T12:50:34;101197.94;;;27.45;38.71
67842;BME280;54642;59.126;37.876;2022-08-19T12:53:00;101210.63;;;27.55;38.90
67842;BME280;54642;59.126;37.876;2022-08-19T12:55:26;101183.19;;;27.39;38.43
67842;BME280;54642;59.126;37.876;2022-08-19T12:57:54;101211.50;;;27.56;39.23
67842;BME280;54642;59.126;37.876;2022-08-19T13:00:24;101199.81;;;27.58;39.22